PWSweather.com
Personal Weather Stations
Station Observations
EPTALOFOS
Ampelokipi, ThessalonikiGR 56123

AmpelokipiThessalonikiGR 56123

Lat: 40.6541816, Lon: 22.92589780000003

Elevation: 137

Station Type: Fine Offset WH-3080-Solar

http://www.dmark.gr

Latest ConditionsUpdated 10:00:02 AM GMT+02:02 Monday, Aug 26, 2019
Currently Today's Max Today's Min Today's Average
Temperature 97.5°F36.4°C 97.5°F36.4°C 78.3°F25.7°C 83.1°F28.4°C
Dew Point 51.0°F10.6°C 60.9°F16.1°C 49.4°F9.7°C 53.2°F11.8°C
Winds 2.2 mph E3.5 kmh E 6.9 mph -11.1 kmh - - 4.0 mph 6.4 kmh
Wind Gusts 2.2 mph3.5 kmh 10.7 mph17.2 kmh - -
Humidity 21% 54% 21% 37%
Pressure 30.02 in1016.6 mb 30.03 in1016.9 mb 29.97 in1014.9 mb -
Hour Temp Dew Point Humidity Winds Wind Gusts Pressure Precip Precip Rate Daily Precip Total
10:00 AM 97.5°F36.4°C 51.0°F10.6°C 21% 2.2 mph E3.5 kmh E 2.2 mph3.5 kmh 30.02 in1016.6 mb 0.00 in0.0 mm 0.00 in0.0 mm 0.00 in0.0 mm
09:30 AM 92.3°F33.5°C 51.4°F10.8°C 25% 5.3 mph NE8.5 kmh NE 6.0 mph9.7 kmh 30.03 in1016.9 mb 0.00 in0.0 mm 0.00 in0.0 mm 0.00 in0.0 mm
09:00 AM 90.7°F32.6°C 53.1°F11.7°C 28% 5.7 mph NW9.2 kmh NW 7.6 mph12.2 kmh 30.02 in1016.6 mb 0.00 in0.0 mm 0.00 in0.0 mm 0.00 in0.0 mm
08:30 AM 88.7°F31.5°C 49.4°F9.7°C 26% 6.9 mph NE11.1 kmh NE 10.7 mph17.2 kmh 30.02 in1016.6 mb 0.00 in0.0 mm 0.00 in0.0 mm 0.00 in0.0 mm
08:00 AM 88.9°F31.6°C 51.6°F10.9°C 28% 3.0 mph NNW4.8 kmh NNW 3.8 mph6.1 kmh 30.02 in1016.6 mb 0.00 in0.0 mm 0.00 in0.0 mm 0.00 in0.0 mm
07:30 AM 85.3°F29.6°C 53.7°F12.1°C 34% 3.8 mph NNE6.1 kmh NNE 3.8 mph6.1 kmh 30.02 in1016.6 mb 0.00 in0.0 mm 0.00 in0.0 mm 0.00 in0.0 mm
07:00 AM 81.9°F27.7°C 53.8°F12.1°C 38% 3.8 mph ESE6.1 kmh ESE 4.5 mph7.2 kmh 30.01 in1016.3 mb 0.00 in0.0 mm 0.00 in0.0 mm 0.00 in0.0 mm
06:30 AM 79.0°F26.1°C 53.3°F11.8°C 41% 6.0 mph E9.7 kmh E 6.0 mph9.7 kmh 30.01 in1016.3 mb 0.00 in0.0 mm 0.00 in0.0 mm 0.00 in0.0 mm
06:00 AM 78.3°F25.7°C 52.6°F11.4°C 41% 5.4 mph NE8.7 kmh NE 5.4 mph8.7 kmh 30.00 in1015.9 mb 0.00 in0.0 mm 0.00 in0.0 mm 0.00 in0.0 mm
05:30 AM 78.3°F25.7°C 52.6°F11.4°C 41% 6.2 mph NNE10.0 kmh NNE 6.9 mph11.1 kmh 30.00 in1015.9 mb 0.00 in0.0 mm 0.00 in0.0 mm 0.00 in0.0 mm
05:00 AM 78.4°F25.8°C 52.8°F11.6°C 41% 6.8 mph NNE10.9 kmh NNE 7.6 mph12.2 kmh 29.99 in1015.6 mb 0.00 in0.0 mm 0.00 in0.0 mm 0.00 in0.0 mm
04:30 AM 79.2°F26.2°C 52.8°F11.6°C 40% 3.0 mph NNE4.8 kmh NNE 3.8 mph6.1 kmh 29.99 in1015.6 mb 0.00 in0.0 mm 0.00 in0.0 mm 0.00 in0.0 mm
04:00 AM 79.3°F26.3°C 53.6°F12.0°C 41% 2.7 mph E4.3 kmh E 3.1 mph5.0 kmh 29.98 in1015.2 mb 0.00 in0.0 mm 0.00 in0.0 mm 0.00 in0.0 mm
03:30 AM 79.7°F26.5°C 53.2°F11.8°C 40% 4.1 mph ENE6.6 kmh ENE 4.5 mph7.2 kmh 29.98 in1015.2 mb 0.00 in0.0 mm 0.00 in0.0 mm 0.00 in0.0 mm
03:00 AM 79.0°F26.1°C 60.9°F16.1°C 54% 1.8 mph SE2.9 kmh SE 3.1 mph5.0 kmh 29.99 in1015.6 mb 0.00 in0.0 mm 0.00 in0.0 mm 0.00 in0.0 mm
02:30 AM 82.6°F28.1°C 52.9°F11.6°C 36% 3.0 mph N4.8 kmh N 4.5 mph7.2 kmh 29.97 in1014.9 mb 0.00 in0.0 mm 0.00 in0.0 mm 0.00 in0.0 mm
02:00 AM 81.7°F27.6°C 54.3°F12.4°C 39% 1.5 mph N2.4 kmh N 2.2 mph3.5 kmh 29.97 in1014.9 mb 0.00 in0.0 mm 0.00 in0.0 mm 0.00 in0.0 mm
01:30 AM 81.5°F27.5°C 56.2°F13.4°C 42% 0.8 mph W1.3 kmh W 1.6 mph2.6 kmh 29.98 in1015.2 mb 0.00 in0.0 mm 0.00 in0.0 mm 0.00 in0.0 mm
01:00 AM 81.3°F27.4°C 52.6°F11.4°C 37% 2.3 mph NNE3.7 kmh NNE 3.1 mph5.0 kmh 29.97 in1014.9 mb 0.00 in0.0 mm 0.00 in0.0 mm 0.00 in0.0 mm
12:30 AM 81.3°F27.4°C 53.3°F11.8°C 38% 4.5 mph N7.2 kmh N 4.5 mph7.2 kmh 29.98 in1015.2 mb 0.00 in0.0 mm 0.00 in0.0 mm 0.00 in0.0 mm
12:00 AM 81.1°F27.3°C 52.4°F11.3°C 37% 4.5 mph N7.2 kmh N 4.5 mph7.2 kmh 29.98 in1015.2 mb 0.00 in0.0 mm 0.00 in0.0 mm 0.00 in0.0 mm